sensor_id;sensor_type;location;lat;lon;timestamp;pressure;altitude;pressure_sealevel;temperature;humidity
6387;BME280;3226;42.162;24.756;2024-03-02T00:01:07;99372.94;;;6.57;100.00
6387;BME280;3226;42.162;24.756;2024-03-02T00:03:36;99374.00;;;6.54;100.00
6387;BME280;3226;42.162;24.756;2024-03-02T00:06:04;99367.97;;;6.54;100.00
6387;BME280;3226;42.162;24.756;2024-03-02T00:08:32;99370.34;;;6.57;100.00
6387;BME280;3226;42.162;24.756;2024-03-02T00:11:01;99368.50;;;6.46;100.00
6387;BME280;3226;42.162;24.756;2024-03-02T00:13:30;99377.44;;;6.42;100.00
6387;BME280;3226;42.162;24.756;2024-03-02T00:16:00;99362.34;;;6.47;100.00
6387;BME280;3226;42.162;24.756;2024-03-02T00:18:31;99366.06;;;6.69;100.00
6387;BME280;3226;42.162;24.756;2024-03-02T00:21:00;99365.34;;;6.67;100.00
6387;BME280;3226;42.162;24.756;2024-03-02T00:23:30;99367.31;;;6.63;100.00
6387;BME280;3226;42.162;24.756;2024-03-02T00:25:59;99352.50;;;6.39;100.00
6387;BME280;3226;42.162;24.756;2024-03-02T00:28:30;99364.94;;;6.47;100.00
6387;BME280;3226;42.162;24.756;2024-03-02T00:31:04;99359.47;;;6.39;100.00
6387;BME280;3226;42.162;24.756;2024-03-02T00:33:34;99339.19;;;6.31;100.00
6387;BME280;3226;42.162;24.756;2024-03-02T00:36:03;99357.28;;;6.45;100.00
6387;BME280;3226;42.162;24.756;2024-03-02T00:38:32;99362.53;;;6.57;100.00
6387;BME280;3226;42.162;24.756;2024-03-02T00:41:04;99343.19;;;6.48;100.00
6387;BME280;3226;42.162;24.756;2024-03-02T00:43:45;99344.00;;;6.61;100.00
6387;BME280;3226;42.162;24.756;2024-03-02T00:46:19;99347.69;;;6.46;100.00
6387;BME280;3226;42.162;24.756;2024-03-02T00:48:53;99341.03;;;6.42;100.00
6387;BME280;3226;42.162;24.756;2024-03-02T00:51:23;99343.56;;;6.30;100.00
6387;BME280;3226;42.162;24.756;2024-03-02T00:53:51;99338.47;;;6.29;100.00
6387;BME280;3226;42.162;24.756;2024-03-02T00:56:22;99336.69;;;6.42;100.00
6387;BME280;3226;42.162;24.756;2024-03-02T00:58:51;99332.22;;;6.31;100.00
6387;BME280;3226;42.162;24.756;2024-03-02T01:01:21;99332.00;;;6.34;100.00
6387;BME280;3226;42.162;24.756;2024-03-02T01:03:49;99329.91;;;6.40;100.00
6387;BME280;3226;42.162;24.756;2024-03-02T01:06:18;99298.13;;;6.23;100.00
6387;BME280;3226;42.162;24.756;2024-03-02T01:08:46;99319.94;;;6.33;100.00
6387;BME280;3226;42.162;24.756;2024-03-02T01:11:18;99319.72;;;6.36;100.00
6387;BME280;3226;42.162;24.756;2024-03-02T01:13:49;99311.69;;;6.40;100.00
6387;BME280;3226;42.162;24.756;2024-03-02T01:16:19;99307.94;;;6.44;100.00
6387;BME280;3226;42.162;24.756;2024-03-02T01:18:48;99312.13;;;6.33;100.00
6387;BME280;3226;42.162;24.756;2024-03-02T01:21:17;99311.94;;;6.36;100.00
6387;BME280;3226;42.162;24.756;2024-03-02T01:23:45;99295.69;;;6.33;100.00
6387;BME280;3226;42.162;24.756;2024-03-02T01:26:13;99315.53;;;6.47;100.00
6387;BME280;3226;42.162;24.756;2024-03-02T01:28:41;99302.75;;;6.44;100.00
6387;BME280;3226;42.162;24.756;2024-03-02T01:31:09;99313.16;;;6.44;100.00
6387;BME280;3226;42.162;24.756;2024-03-02T01:33:37;99305.78;;;6.38;100.00
6387;BME280;3226;42.162;24.756;2024-03-02T01:36:07;99301.44;;;6.38;100.00
6387;BME280;3226;42.162;24.756;2024-03-02T01:38:35;99302.38;;;6.37;100.00
6387;BME280;3226;42.162;24.756;2024-03-02T01:41:03;99310.16;;;6.37;100.00
6387;BME280;3226;42.162;24.756;2024-03-02T01:43:32;99313.72;;;6.23;100.00
6387;BME280;3226;42.162;24.756;2024-03-02T01:46:00;99316.63;;;6.31;100.00
6387;BME280;3226;42.162;24.756;2024-03-02T01:48:28;99311.69;;;6.40;100.00
6387;BME280;3226;42.162;24.756;2024-03-02T01:50:56;99307.00;;;6.45;100.00
6387;BME280;3226;42.162;24.756;2024-03-02T01:53:25;99298.06;;;6.36;100.00
6387;BME280;3226;42.162;24.756;2024-03-02T01:55:54;99307.66;;;6.35;100.00
6387;BME280;3226;42.162;24.756;2024-03-02T01:58:22;99313.72;;;6.23;100.00
6387;BME280;3226;42.162;24.756;2024-03-02T02:00:50;99309.75;;;6.30;100.00
6387;BME280;3226;42.162;24.756;2024-03-02T02:03:18;99317.56;;;6.30;100.00
6387;BME280;3226;42.162;24.756;2024-03-02T02:05:46;99310.91;;;6.26;100.00
6387;BME280;3226;42.162;24.756;2024-03-02T02:08:14;99280.03;;;6.08;100.00
6387;BME280;3226;42.162;24.756;2024-03-02T02:10:44;99305.72;;;6.13;100.00
6387;BME280;3226;42.162;24.756;2024-03-02T02:13:12;99270.28;;;6.12;100.00
6387;BME280;3226;42.162;24.756;2024-03-02T02:15:40;99300.50;;;6.26;100.00
6387;BME280;3226;42.162;24.756;2024-03-02T02:18:08;99306.69;;;6.12;100.00
6387;BME280;3226;42.162;24.756;2024-03-02T02:20:36;99273.38;;;5.91;100.00
6387;BME280;3226;42.162;24.756;2024-03-02T02:23:04;99304.06;;;6.25;100.00
6387;BME280;3226;42.162;24.756;2024-03-02T02:25:34;99297.69;;;6.29;100.00
6387;BME280;3226;42.162;24.756;2024-03-02T02:28:02;99289.88;;;6.29;100.00
6387;BME280;3226;42.162;24.756;2024-03-02T02:30:32;99306.66;;;6.25;100.00
6387;BME280;3226;42.162;24.756;2024-03-02T02:33:00;99299.84;;;6.35;100.00
6387;BME280;3226;42.162;24.756;2024-03-02T02:35:28;99296.22;;;6.38;100.00
6387;BME280;3226;42.162;24.756;2024-03-02T02:37:57;99302.53;;;6.47;100.00
6387;BME280;3226;42.162;24.756;2024-03-02T02:40:27;99294.84;;;6.45;100.00
6387;BME280;3226;42.162;24.756;2024-03-02T02:42:57;99291.97;;;6.37;100.00
6387;BME280;3226;42.162;24.756;2024-03-02T02:45:25;99295.28;;;6.39;100.00
6387;BME280;3226;42.162;24.756;2024-03-02T02:47:53;99295.44;;;6.49;100.00
6387;BME280;3226;42.162;24.756;2024-03-02T02:50:22;99297.53;;;6.44;100.00
6387;BME280;3226;42.162;24.756;2024-03-02T02:52:50;99286.09;;;6.46;100.00
6387;BME280;3226;42.162;24.756;2024-03-02T02:55:18;99277.63;;;6.31;100.00
6387;BME280;3226;42.162;24.756;2024-03-02T02:57:47;99266.75;;;6.38;100.00
6387;BME280;3226;42.162;24.756;2024-03-02T03:00:16;99295.56;;;6.47;100.00
6387;BME280;3226;42.162;24.756;2024-03-02T03:02:48;99298.03;;;6.49;100.00
6387;BME280;3226;42.162;24.756;2024-03-02T03:05:18;99306.41;;;6.41;100.00
6387;BME280;3226;42.162;24.756;2024-03-02T03:07:46;99296.94;;;6.40;100.00
6387;BME280;3226;42.162;24.756;2024-03-02T03:10:17;99297.16;;;6.37;100.00
6387;BME280;3226;42.162;24.756;2024-03-02T03:12:46;99298.41;;;6.31;100.00
6387;BME280;3226;42.162;24.756;2024-03-02T03:15:15;99294.59;;;6.24;100.00
6387;BME280;3226;42.162;24.756;2024-03-02T03:17:44;99296.88;;;6.16;100.00
6387;BME280;3226;42.162;24.756;2024-03-02T03:20:14;99300.63;;;6.12;100.00
6387;BME280;3226;42.162;24.756;2024-03-02T03:22:42;99294.41;;;6.14;100.00
6387;BME280;3226;42.162;24.756;2024-03-02T03:25:10;99306.97;;;6.20;100.00
6387;BME280;3226;42.162;24.756;2024-03-02T03:27:38;99300.78;;;6.34;100.00
6387;BME280;3226;42.162;24.756;2024-03-02T03:30:08;99293.63;;;6.38;100.00
6387;BME280;3226;42.162;24.756;2024-03-02T03:32:36;99292.16;;;6.34;100.00
6387;BME280;3226;42.162;24.756;2024-03-02T03:35:05;99288.28;;;6.40;100.00
6387;BME280;3226;42.162;24.756;2024-03-02T03:37:33;99296.94;;;6.40;100.00
6387;BME280;3226;42.162;24.756;2024-03-02T03:40:02;99286.81;;;6.48;100.00
6387;BME280;3226;42.162;24.756;2024-03-02T03:42:34;99285.66;;;6.53;100.00
6387;BME280;3226;42.162;24.756;2024-03-02T03:45:02;99287.75;;;6.47;100.00
6387;BME280;3226;42.162;24.756;2024-03-02T03:47:32;99288.97;;;6.55;100.00
6387;BME280;3226;42.162;24.756;2024-03-02T03:50:00;99286.16;;;6.58;100.00
6387;BME280;3226;42.162;24.756;2024-03-02T03:52:31;99284.22;;;6.48;100.00
6387;BME280;3226;42.162;24.756;2024-03-02T03:54:59;99287.84;;;6.46;100.00
6387;BME280;3226;42.162;24.756;2024-03-02T03:57:27;99282.97;;;6.54;100.00
6387;BME280;3226;42.162;24.756;2024-03-02T03:59:55;99285.94;;;6.61;100.00
6387;BME280;3226;42.162;24.756;2024-03-02T04:02:23;99278.06;;;6.49;100.00
6387;BME280;3226;42.162;24.756;2024-03-02T04:04:53;99285.34;;;6.57;100.00
6387;BME280;3226;42.162;24.756;2024-03-02T04:07:21;99284.03;;;6.63;100.00
6387;BME280;3226;42.162;24.756;2024-03-02T04:09:49;99285.16;;;6.47;100.00
6387;BME280;3226;42.162;24.756;2024-03-02T04:12:17;99294.94;;;6.44;100.00
6387;BME280;3226;42.162;24.756;2024-03-02T04:14:45;99295.97;;;6.54;100.00
6387;BME280;3226;42.162;24.756;2024-03-02T04:17:13;99297.09;;;6.50;100.00
6387;BME280;3226;42.162;24.756;2024-03-02T04:19:41;99284.19;;;6.24;100.00
6387;BME280;3226;42.162;24.756;2024-03-02T04:22:10;99296.16;;;6.51;100.00
6387;BME280;3226;42.162;24.756;2024-03-02T04:24:50;99303.88;;;6.53;100.00
6387;BME280;3226;42.162;24.756;2024-03-02T04:27:18;99306.78;;;6.48;100.00
6387;BME280;3226;42.162;24.756;2024-03-02T04:29:46;99293.91;;;6.46;100.00
6387;BME280;3226;42.162;24.756;2024-03-02T04:32:14;99300.56;;;6.38;100.00
6387;BME280;3226;42.162;24.756;2024-03-02T04:34:42;99301.19;;;6.41;100.00
6387;BME280;3226;42.162;24.756;2024-03-02T04:37:12;99305.47;;;6.42;100.00
6387;BME280;3226;42.162;24.756;2024-03-02T04:39:41;99296.03;;;6.28;100.00
6387;BME280;3226;42.162;24.756;2024-03-02T04:42:09;99300.53;;;6.50;100.00
6387;BME280;3226;42.162;24.756;2024-03-02T04:44:37;99304.63;;;6.42;100.00
6387;BME280;3226;42.162;24.756;2024-03-02T04:47:05;99298.06;;;6.36;100.00
6387;BME280;3226;42.162;24.756;2024-03-02T04:49:33;99294.38;;;6.27;100.00
6387;BME280;3226;42.162;24.756;2024-03-02T04:52:01;99292.50;;;6.29;100.00
6387;BME280;3226;42.162;24.756;2024-03-02T04:54:31;99301.44;;;6.38;100.00
6387;BME280;3226;42.162;24.756;2024-03-02T04:56:59;99296.03;;;6.28;100.00
6387;BME280;3226;42.162;24.756;2024-03-02T04:59:26;99202.72;;;5.73;100.00
6387;BME280;3226;42.162;24.756;2024-03-02T05:01:54;99299.53;;;6.40;100.00
6387;BME280;3226;42.162;24.756;2024-03-02T05:04:22;99305.56;;;6.41;100.00
6387;BME280;3226;42.162;24.756;2024-03-02T05:06:50;99308.78;;;6.44;100.00
6387;BME280;3226;42.162;24.756;2024-03-02T05:09:19;99311.69;;;6.40;100.00
6387;BME280;3226;42.162;24.756;2024-03-02T05:11:49;99317.09;;;6.49;100.00
6387;BME280;3226;42.162;24.756;2024-03-02T05:14:36;99316.47;;;6.46;100.00
6387;BME280;3226;42.162;24.756;2024-03-02T05:17:04;99317.31;;;6.46;100.00
6387;BME280;3226;42.162;24.756;2024-03-02T05:19:32;99319.41;;;6.41;100.00
6387;BME280;3226;42.162;24.756;2024-03-02T05:22:00;99328.75;;;6.44;100.00
6387;BME280;3226;42.162;24.756;2024-03-02T05:24:29;99326.66;;;6.49;100.00
6387;BME280;3226;42.162;24.756;2024-03-02T05:26:59;99284.78;;;6.28;100.00
6387;BME280;3226;42.162;24.756;2024-03-02T05:29:26;99324.28;;;6.46;100.00
6387;BME280;3226;42.162;24.756;2024-03-02T05:31:54;99306.88;;;6.22;100.00
6387;BME280;3226;42.162;24.756;2024-03-02T05:34:22;99317.06;;;6.25;100.00
6387;BME280;3226;42.162;24.756;2024-03-02T05:36:50;99325.63;;;6.51;100.00
6387;BME280;3226;42.162;24.756;2024-03-02T05:39:18;99333.44;;;6.39;100.00
6387;BME280;3226;42.162;24.756;2024-03-02T05:41:46;99335.75;;;6.30;100.00
6387;BME280;3226;42.162;24.756;2024-03-02T05:44:16;99341.78;;;6.31;100.00
6387;BME280;3226;42.162;24.756;2024-03-02T05:46:45;99335.84;;;6.42;100.00
6387;BME280;3226;42.162;24.756;2024-03-02T05:49:13;99340.09;;;6.43;100.00
6387;BME280;3226;42.162;24.756;2024-03-02T05:51:41;99335.13;;;6.40;100.00
6387;BME280;3226;42.162;24.756;2024-03-02T05:54:09;99338.13;;;6.46;100.00
6387;BME280;3226;42.162;24.756;2024-03-02T05:56:37;99340.28;;;6.53;100.00
6387;BME280;3226;42.162;24.756;2024-03-02T05:59:05;99340.00;;;6.44;100.00
6387;BME280;3226;42.162;24.756;2024-03-02T06:01:42;99336.91;;;6.39;100.00
6387;BME280;3226;42.162;24.756;2024-03-02T06:04:10;99335.03;;;6.28;100.00
6387;BME280;3226;42.162;24.756;2024-03-02T06:06:38;99327.38;;;6.51;100.00
6387;BME280;3226;42.162;24.756;2024-03-02T06:09:07;99335.31;;;6.49;100.00
6387;BME280;3226;42.162;24.756;2024-03-02T06:11:35;99329.88;;;6.53;100.00
6387;BME280;3226;42.162;24.756;2024-03-02T06:14:03;99335.28;;;6.62;100.00
6387;BME280;3226;42.162;24.756;2024-03-02T06:16:31;99329.78;;;6.54;100.00
6387;BME280;3226;42.162;24.756;2024-03-02T06:19:01;99334.69;;;6.46;100.00
6387;BME280;3226;42.162;24.756;2024-03-02T06:21:29;99343.09;;;6.49;100.00
6387;BME280;3226;42.162;24.756;2024-03-02T06:23:57;99348.00;;;6.54;100.00
6387;BME280;3226;42.162;24.756;2024-03-02T06:26:25;99347.56;;;6.60;100.00
6387;BME280;3226;42.162;24.756;2024-03-02T06:28:53;99348.19;;;6.51;100.00
6387;BME280;3226;42.162;24.756;2024-03-02T06:31:21;99342.22;;;6.62;100.00
6387;BME280;3226;42.162;24.756;2024-03-02T06:33:49;99344.00;;;6.61;100.00
6387;BME280;3226;42.162;24.756;2024-03-02T06:36:19;99344.00;;;6.61;100.00
6387;BME280;3226;42.162;24.756;2024-03-02T06:38:46;99346.50;;;6.63;100.00
6387;BME280;3226;42.162;24.756;2024-03-02T06:41:14;99351.69;;;6.63;100.00
6387;BME280;3226;42.162;24.756;2024-03-02T06:43:42;99345.00;;;6.72;100.00
6387;BME280;3226;42.162;24.756;2024-03-02T06:46:10;99354.56;;;6.71;100.00
6387;BME280;3226;42.162;24.756;2024-03-02T06:48:41;99348.28;;;6.62;100.00
6387;BME280;3226;42.162;24.756;2024-03-02T06:51:09;99361.91;;;6.53;100.00
6387;BME280;3226;42.162;24.756;2024-03-02T06:53:39;99367.25;;;6.51;100.00
6387;BME280;3226;42.162;24.756;2024-03-02T06:56:06;99373.38;;;6.50;100.00
6387;BME280;3226;42.162;24.756;2024-03-02T06:58:34;99374.97;;;6.40;100.00
6387;BME280;3226;42.162;24.756;2024-03-02T07:01:03;99375.28;;;6.35;100.00
6387;BME280;3226;42.162;24.756;2024-03-02T07:03:31;99371.25;;;6.31;100.00
6387;BME280;3226;42.162;24.756;2024-03-02T07:06:00;99377.97;;;6.34;100.00
6387;BME280;3226;42.162;24.756;2024-03-02T07:08:27;99379.03;;;6.31;100.00
6387;BME280;3226;42.162;24.756;2024-03-02T07:10:57;99379.03;;;6.31;100.00
6387;BME280;3226;42.162;24.756;2024-03-02T07:13:25;99370.38;;;6.44;100.00
6387;BME280;3226;42.162;24.756;2024-03-02T07:15:53;99356.22;;;6.48;100.00
6387;BME280;3226;42.162;24.756;2024-03-02T07:18:49;99353.91;;;6.56;100.00
6387;BME280;3226;42.162;24.756;2024-03-02T07:21:19;99356.09;;;6.62;100.00
6387;BME280;3226;42.162;24.756;2024-03-02T07:23:49;99367.00;;;6.68;100.00
6387;BME280;3226;42.162;24.756;2024-03-02T07:26:18;99322.22;;;6.75;100.00
6387;BME280;3226;42.162;24.756;2024-03-02T07:28:50;99372.16;;;7.05;100.00
6387;BME280;3226;42.162;24.756;2024-03-02T07:31:18;99375.31;;;6.97;100.00
6387;BME280;3226;42.162;24.756;2024-03-02T07:33:46;99374.44;;;7.09;100.00
6387;BME280;3226;42.162;24.756;2024-03-02T07:36:15;99375.81;;;7.02;100.00
6387;BME280;3226;42.162;24.756;2024-03-02T07:38:43;99374.53;;;7.08;100.00
6387;BME280;3226;42.162;24.756;2024-03-02T07:41:12;99377.47;;;7.03;100.00
6387;BME280;3226;42.162;24.756;2024-03-02T07:43:41;99369.50;;;6.93;100.00
6387;BME280;3226;42.162;24.756;2024-03-02T07:46:09;99373.88;;;6.93;100.00
6387;BME280;3226;42.162;24.756;2024-03-02T07:48:37;99372.03;;;6.82;100.00
6387;BME280;3226;42.162;24.756;2024-03-02T07:51:05;99371.59;;;6.88;100.00
6387;BME280;3226;42.162;24.756;2024-03-02T07:53:33;99362.56;;;6.81;100.00
6387;BME280;3226;42.162;24.756;2024-03-02T07:56:03;99360.41;;;6.75;100.00
6387;BME280;3226;42.162;24.756;2024-03-02T07:58:32;99363.06;;;6.86;100.00
6387;BME280;3226;42.162;24.756;2024-03-02T08:01:03;99362.34;;;6.84;100.00
6387;BME280;3226;42.162;24.756;2024-03-02T08:03:31;99388.38;;;6.84;100.00
6387;BME280;3226;42.162;24.756;2024-03-02T08:06:01;99382.13;;;6.87;100.00
6387;BME280;3226;42.162;24.756;2024-03-02T08:08:29;99370.16;;;6.84;100.00
6387;BME280;3226;42.162;24.756;2024-03-02T08:10:57;99390.38;;;6.80;100.00
6387;BME280;3226;42.162;24.756;2024-03-02T08:13:27;99381.50;;;6.83;100.00
6387;BME280;3226;42.162;24.756;2024-03-02T08:15:55;99382.00;;;6.88;100.00
6387;BME280;3226;42.162;24.756;2024-03-02T08:18:25;99386.66;;;6.96;100.00
6387;BME280;3226;42.162;24.756;2024-03-02T08:20:53;99383.88;;;6.86;100.00
6387;BME280;3226;42.162;24.756;2024-03-02T08:23:21;99384.47;;;7.03;100.00
6387;BME280;3226;42.162;24.756;2024-03-02T08:25:49;99369.78;;;7.02;100.00
6387;BME280;3226;42.162;24.756;2024-03-02T08:28:17;99363.47;;;6.93;100.00
6387;BME280;3226;42.162;24.756;2024-03-02T08:30:46;99364.91;;;6.97;100.00
6387;BME280;3226;42.162;24.756;2024-03-02T08:33:14;99367.78;;;7.05;100.00
6387;BME280;3226;42.162;24.756;2024-03-02T08:35:43;99365.53;;;7.01;100.00
6387;BME280;3226;42.162;24.756;2024-03-02T08:38:12;99318.50;;;6.67;100.00
6387;BME280;3226;42.162;24.756;2024-03-02T08:40:40;99371.06;;;6.96;100.00
6387;BME280;3226;42.162;24.756;2024-03-02T08:43:08;99372.03;;;6.82;100.00
6387;BME280;3226;42.162;24.756;2024-03-02T08:45:36;99376.47;;;6.93;100.00
6387;BME280;3226;42.162;24.756;2024-03-02T08:48:07;99374.50;;;6.97;100.00
6387;BME280;3226;42.162;24.756;2024-03-02T08:50:36;99358.44;;;7.03;100.00
6387;BME280;3226;42.162;24.756;2024-03-02T08:53:05;99366.25;;;7.03;100.00
6387;BME280;3226;42.162;24.756;2024-03-02T08:55:33;99362.56;;;7.05;100.00
6387;BME280;3226;42.162;24.756;2024-03-02T08:58:01;99365.47;;;7.14;100.00
6387;BME280;3226;42.162;24.756;2024-03-02T09:00:30;99350.41;;;7.06;100.00
6387;BME280;3226;42.162;24.756;2024-03-02T09:02:58;99357.59;;;7.02;100.00
6387;BME280;3226;42.162;24.756;2024-03-02T09:05:26;99364.63;;;7.13;100.00
6387;BME280;3226;42.162;24.756;2024-03-02T09:07:54;99371.00;;;7.09;100.00
6387;BME280;3226;42.162;24.756;2024-03-02T09:10:23;99369.78;;;7.26;100.00
6387;BME280;3226;42.162;24.756;2024-03-02T09:12:54;99359.28;;;7.39;100.00
6387;BME280;3226;42.162;24.756;2024-03-02T09:15:22;99369.81;;;7.37;100.00
6387;BME280;3226;42.162;24.756;2024-03-02T09:17:50;99368.53;;;7.43;100.00
6387;BME280;3226;42.162;24.756;2024-03-02T09:20:18;99371.59;;;7.37;100.00
6387;BME280;3226;42.162;24.756;2024-03-02T09:22:46;99373.72;;;7.32;100.00
6387;BME280;3226;42.162;24.756;2024-03-02T09:25:15;99370.19;;;7.44;100.00
6387;BME280;3226;42.162;24.756;2024-03-02T09:27:44;99371.53;;;7.61;100.00
6387;BME280;3226;42.162;24.756;2024-03-02T09:30:13;99363.00;;;7.59;100.00
6387;BME280;3226;42.162;24.756;2024-03-02T09:32:41;99362.16;;;7.59;100.00
6387;BME280;3226;42.162;24.756;2024-03-02T09:35:10;99363.03;;;7.71;100.00
6387;BME280;3226;42.162;24.756;2024-03-02T09:37:39;99362.31;;;7.69;100.00
6387;BME280;3226;42.162;24.756;2024-03-02T09:40:07;99361.13;;;7.73;100.00
6387;BME280;3226;42.162;24.756;2024-03-02T09:42:36;99362.22;;;7.70;100.00
6387;BME280;3226;42.162;24.756;2024-03-02T09:45:06;99365.06;;;7.78;100.00
6387;BME280;3226;42.162;24.756;2024-03-02T09:47:35;99366.72;;;7.79;100.00
6387;BME280;3226;42.162;24.756;2024-03-02T09:50:03;99369.56;;;7.88;100.00
6387;BME280;3226;42.162;24.756;2024-03-02T09:52:31;99361.50;;;7.79;100.00
6387;BME280;3226;42.162;24.756;2024-03-02T09:55:00;99374.31;;;7.94;100.00
6387;BME280;3226;42.162;24.756;2024-03-02T09:57:28;99366.53;;;8.05;100.00
6387;BME280;3226;42.162;24.756;2024-03-02T09:59:56;99362.97;;;8.18;100.00
6387;BME280;3226;42.162;24.756;2024-03-02T10:02:25;99363.44;;;8.23;100.00
6387;BME280;3226;42.162;24.756;2024-03-02T10:04:53;99368.66;;;8.34;100.00
6387;BME280;3226;42.162;24.756;2024-03-02T10:07:21;99353.00;;;8.23;100.00
6387;BME280;3226;42.162;24.756;2024-03-02T10:09:49;99361.28;;;8.28;100.00
6387;BME280;3226;42.162;24.756;2024-03-02T10:12:18;99352.19;;;8.22;100.00
6387;BME280;3226;42.162;24.756;2024-03-02T10:14:46;99354.56;;;8.14;100.00
6387;BME280;3226;42.162;24.756;2024-03-02T10:17:17;99355.88;;;8.31;100.00
6387;BME280;3226;42.162;24.756;2024-03-02T10:19:46;99357.03;;;8.27;100.00
6387;BME280;3226;42.162;24.756;2024-03-02T10:22:14;99354.16;;;8.30;100.00
6387;BME280;3226;42.162;24.756;2024-03-02T10:24:44;99351.56;;;8.19;100.00
6387;BME280;3226;42.162;24.756;2024-03-02T10:27:16;99351.81;;;8.16;100.00
6387;BME280;3226;42.162;24.756;2024-03-02T10:29:46;99331.44;;;7.98;100.00
6387;BME280;3226;42.162;24.756;2024-03-02T10:32:15;99341.38;;;8.16;100.00
6387;BME280;3226;42.162;24.756;2024-03-02T10:34:44;99338.19;;;8.01;100.00
6387;BME280;3226;42.162;24.756;2024-03-02T10:37:15;99337.38;;;8.00;100.00
6387;BME280;3226;42.162;24.756;2024-03-02T10:39:46;99333.69;;;8.14;100.00
6387;BME280;3226;42.162;24.756;2024-03-02T10:42:14;99334.03;;;8.21;100.00
6387;BME280;3226;42.162;24.756;2024-03-02T10:44:43;99327.88;;;8.10;100.00
6387;BME280;3226;42.162;24.756;2024-03-02T10:47:12;99318.41;;;7.98;100.00
6387;BME280;3226;42.162;24.756;2024-03-02T10:49:42;99318.97;;;8.02;100.00
6387;BME280;3226;42.162;24.756;2024-03-02T10:52:10;99310.69;;;7.85;100.00
6387;BME280;3226;42.162;24.756;2024-03-02T10:54:40;99310.91;;;7.93;100.00
6387;BME280;3226;42.162;24.756;2024-03-02T10:57:10;99298.84;;;7.92;100.00
6387;BME280;3226;42.162;24.756;2024-03-02T10:59:46;99310.06;;;7.93;100.00
6387;BME280;3226;42.162;24.756;2024-03-02T11:02:21;99319.19;;;7.76;100.00
6387;BME280;3226;42.162;24.756;2024-03-02T11:04:50;99257.69;;;7.50;100.00
6387;BME280;3226;42.162;24.756;2024-03-02T11:07:22;99310.56;;;7.87;100.00
6387;BME280;3226;42.162;24.756;2024-03-02T11:09:56;99307.38;;;7.94;100.00
6387;BME280;3226;42.162;24.756;2024-03-02T11:12:29;99299.44;;;7.96;100.00
6387;BME280;3226;42.162;24.756;2024-03-02T11:14:58;99302.97;;;7.95;100.00
6387;BME280;3226;42.162;24.756;2024-03-02T11:17:26;99298.22;;;8.12;100.00
6387;BME280;3226;42.162;24.756;2024-03-02T11:19:54;99297.75;;;7.95;100.00
6387;BME280;3226;42.162;24.756;2024-03-02T11:22:23;99298.69;;;7.94;100.00
6387;BME280;3226;42.162;24.756;2024-03-02T11:24:52;99286.16;;;7.76;100.00
6387;BME280;3226;42.162;24.756;2024-03-02T11:30:50;99284.19;;;8.47;100.00
6387;BME280;3226;42.162;24.756;2024-03-02T11:33:26;99286.78;;;8.70;100.00
6387;BME280;3226;42.162;24.756;2024-03-02T11:35:56;99282.72;;;8.77;100.00
6387;BME280;3226;42.162;24.756;2024-03-02T11:38:30;99273.41;;;8.84;100.00
6387;BME280;3226;42.162;24.756;2024-03-02T11:41:01;99279.41;;;8.75;100.00
6387;BME280;3226;42.162;24.756;2024-03-02T11:43:30;99179.00;;;8.35;100.00
6387;BME280;3226;42.162;24.756;2024-03-02T11:46:00;99260.47;;;8.82;100.00
6387;BME280;3226;42.162;24.756;2024-03-02T11:48:31;99239.41;;;8.95;100.00
6387;BME280;3226;42.162;24.756;2024-03-02T11:51:00;99258.53;;;9.17;100.00
6387;BME280;3226;42.162;24.756;2024-03-02T11:53:28;99260.00;;;9.31;100.00
6387;BME280;3226;42.162;24.756;2024-03-02T11:56:03;99264.97;;;9.34;100.00
6387;BME280;3226;42.162;24.756;2024-03-02T11:58:36;99231.69;;;9.36;100.00
6387;BME280;3226;42.162;24.756;2024-03-02T12:01:04;99265.47;;;9.49;100.00
6387;BME280;3226;42.162;24.756;2024-03-02T12:03:34;99243.78;;;9.59;100.00
6387;BME280;3226;42.162;24.756;2024-03-02T12:06:02;99231.50;;;9.49;100.00
6387;BME280;3226;42.162;24.756;2024-03-02T12:08:31;99247.13;;;10.02;100.00
6387;BME280;3226;42.162;24.756;2024-03-02T12:11:00;99244.41;;;10.23;100.00
6387;BME280;3226;42.162;24.756;2024-03-02T12:13:32;99248.97;;;10.21;100.00
6387;BME280;3226;42.162;24.756;2024-03-02T12:16:00;99245.25;;;10.33;100.00
6387;BME280;3226;42.162;24.756;2024-03-02T12:18:29;99237.53;;;10.22;100.00
6387;BME280;3226;42.162;24.756;2024-03-02T12:20:57;99241.94;;;10.31;100.00
6387;BME280;3226;42.162;24.756;2024-03-02T12:23:25;99232.28;;;10.22;100.00
6387;BME280;3226;42.162;24.756;2024-03-02T12:25:54;99237.19;;;10.46;100.00
6387;BME280;3226;42.162;24.756;2024-03-02T12:28:22;99208.34;;;10.36;100.00
6387;BME280;3226;42.162;24.756;2024-03-02T12:30:51;99232.16;;;10.13;100.00
6387;BME280;3226;42.162;24.756;2024-03-02T12:33:19;99231.44;;;10.21;100.00
6387;BME280;3226;42.162;24.756;2024-03-02T12:35:49;99229.84;;;9.89;100.00
6387;BME280;3226;42.162;24.756;2024-03-02T12:38:17;99240.78;;;9.94;100.00
6387;BME280;3226;42.162;24.756;2024-03-02T12:40:47;99233.97;;;9.51;100.00
6387;BME280;3226;42.162;24.756;2024-03-02T12:43:16;99201.84;;;9.08;100.00
6387;BME280;3226;42.162;24.756;2024-03-02T12:45:44;99206.13;;;9.09;100.00
6387;BME280;3226;42.162;24.756;2024-03-02T12:48:13;99233.63;;;9.34;100.00
6387;BME280;3226;42.162;24.756;2024-03-02T12:50:42;99240.19;;;9.29;100.00
6387;BME280;3226;42.162;24.756;2024-03-02T12:53:14;99244.78;;;9.15;100.00
6387;BME280;3226;42.162;24.756;2024-03-02T12:55:43;99244.19;;;9.11;100.00
6387;BME280;3226;42.162;24.756;2024-03-02T12:58:17;99248.34;;;9.14;100.00
6387;BME280;3226;42.162;24.756;2024-03-02T13:00:45;99246.50;;;9.26;100.00
6387;BME280;3226;42.162;24.756;2024-03-02T13:03:14;99251.28;;;9.42;100.00
6387;BME280;3226;42.162;24.756;2024-03-02T13:05:48;99251.78;;;9.57;100.00
6387;BME280;3226;42.162;24.756;2024-03-02T13:08:16;99215.69;;;9.30;100.00
6387;BME280;3226;42.162;24.756;2024-03-02T13:10:44;99257.75;;;9.48;100.00
6387;BME280;3226;42.162;24.756;2024-03-02T13:13:13;99213.56;;;8.92;100.00
6387;BME280;3226;42.162;24.756;2024-03-02T13:15:41;99251.41;;;8.98;100.00
6387;BME280;3226;42.162;24.756;2024-03-02T13:18:10;99262.81;;;9.18;100.00
6387;BME280;3226;42.162;24.756;2024-03-02T13:20:40;99263.25;;;9.23;100.00
6387;BME280;3226;42.162;24.756;2024-03-02T13:23:08;99263.19;;;9.14;100.00